createdAt,value
2017-08-04T00:00:57.951Z,90.51
2017-08-04T00:01:57.891Z,90.18
2017-08-04T00:02:57.936Z,89.93
2017-08-04T00:03:57.989Z,90.32
2017-08-04T00:04:57.719Z,89.51
2017-08-04T00:05:57.761Z,90.34
2017-08-04T00:06:57.812Z,90.00
2017-08-04T00:07:57.764Z,89.21
2017-08-04T00:08:57.698Z,90.07
2017-08-04T00:09:57.734Z,90.46
2017-08-04T00:10:57.683Z,90.32
2017-08-04T00:11:57.764Z,89.88
2017-08-04T00:12:57.691Z,90.72
2017-08-04T00:13:57.941Z,90.53
2017-08-04T00:14:57.979Z,90.46
2017-08-04T00:15:57.899Z,90.75
2017-08-04T00:16:58.033Z,90.23
2017-08-04T00:17:57.960Z,90.36
2017-08-04T00:18:57.984Z,90.51
2017-08-04T00:19:57.914Z,90.20
2017-08-04T00:20:57.740Z,90.39
2017-08-04T00:21:57.775Z,90.61
2017-08-04T00:22:57.711Z,90.39
2017-08-04T00:23:57.743Z,90.23
2017-08-04T00:24:57.779Z,90.84
2017-08-04T00:25:57.818Z,90.83
2017-08-04T00:26:57.834Z,90.33
2017-08-04T00:27:57.772Z,89.91
2017-08-04T00:28:58.011Z,90.43
2017-08-04T00:29:57.945Z,90.30
2017-08-04T00:30:57.974Z,90.26
2017-08-04T00:31:58.004Z,90.53
2017-08-04T00:32:58.127Z,89.21
2017-08-04T00:33:58.053Z,90.44
2017-08-04T00:34:58.080Z,90.38
2017-08-04T00:35:57.710Z,90.24
2017-08-04T00:36:58.040Z,89.45
2017-08-04T00:37:57.798Z,90.04
2017-08-04T00:38:57.733Z,90.33
2017-08-04T00:39:57.778Z,89.65
2017-08-04T00:40:57.818Z,89.63
2017-08-04T00:41:57.889Z,90.01
2017-08-04T00:42:57.820Z,90.36
2017-08-04T00:43:57.854Z,89.33
2017-08-04T00:44:57.784Z,88.88
2017-08-04T00:45:57.815Z,89.33
2017-08-04T00:46:58.051Z,88.07
2017-08-04T00:47:58.094Z,87.93
2017-08-04T00:48:58.020Z,87.61
2017-08-04T00:49:58.147Z,88.84
2017-08-04T00:50:57.980Z,87.51
2017-08-04T00:51:58.108Z,88.13
2017-08-04T00:52:58.053Z,88.94
2017-08-04T00:53:57.780Z,88.66
2017-08-04T00:54:57.812Z,88.46
2017-08-04T00:55:57.843Z,87.53
2017-08-04T00:56:57.930Z,88.04
2017-08-04T00:57:57.857Z,88.10
2017-08-04T00:58:57.886Z,88.51
2017-08-04T00:59:57.933Z,88.40
2017-08-04T01:02:32.592Z,88.44
2017-08-04T01:02:33.707Z,88.47
2017-08-04T01:02:57.855Z,88.75
2017-08-04T01:06:00.387Z,88.62
2017-08-04T01:06:01.196Z,88.95
2017-08-04T01:06:01.909Z,89.60
2017-08-04T01:08:33.555Z,89.29
2017-08-04T01:08:34.365Z,89.37
2017-08-04T01:08:57.914Z,89.68
2017-08-04T01:12:00.368Z,89.26
2017-08-04T01:12:01.384Z,89.73
2017-08-04T01:12:02.096Z,89.76
2017-08-04T01:14:33.613Z,89.96
2017-08-04T01:14:34.516Z,90.13
2017-08-04T01:14:57.867Z,89.82
2017-08-04T01:18:00.442Z,89.91
2017-08-04T01:18:01.555Z,89.81
2017-08-04T01:18:02.163Z,89.85
2017-08-04T01:20:33.596Z,90.09
2017-08-04T01:20:34.711Z,90.32
2017-08-04T01:20:57.884Z,90.18
2017-08-04T01:23:42.654Z,89.89
2017-08-04T01:23:43.364Z,90.13
2017-08-04T01:23:57.894Z,90.34
2017-08-04T01:26:35.633Z,90.07
2017-08-04T01:26:36.541Z,89.44
2017-08-04T01:26:57.883Z,89.47
2017-08-04T01:29:43.445Z,89.80
2017-08-04T01:29:44.457Z,89.83
2017-08-04T01:29:57.886Z,90.17
2017-08-04T01:32:35.009Z,90.24
2017-08-04T01:32:35.920Z,90.26
2017-08-04T01:32:57.965Z,90.41
2017-08-04T01:35:43.351Z,91.60
2017-08-04T01:35:44.059Z,91.05
2017-08-04T01:35:57.991Z,91.22
2017-08-04T01:38:32.789Z,91.11
2017-08-04T01:38:33.991Z,90.87
2017-08-04T01:38:57.945Z,90.91
2017-08-04T01:41:44.384Z,90.98
2017-08-04T01:41:45.296Z,91.11
2017-08-04T01:41:57.926Z,91.34
2017-08-04T01:44:32.676Z,91.11
2017-08-04T01:44:33.481Z,91.09
2017-08-04T01:44:57.934Z,91.81
2017-08-04T01:47:45.390Z,91.59
2017-08-04T01:47:46.606Z,91.42
2017-08-04T01:47:57.942Z,91.24
2017-08-04T01:50:42.981Z,91.32
2017-08-04T01:50:44.090Z,91.39
2017-08-04T01:50:58.025Z,91.62
2017-08-04T01:53:46.372Z,91.22
2017-08-04T01:53:47.382Z,91.77
2017-08-04T01:53:58.010Z,91.65
2017-08-04T01:56:34.743Z,91.43
2017-08-04T01:56:35.352Z,91.56
2017-08-04T01:56:58.097Z,92.09
2017-08-04T01:59:42.480Z,92.09
2017-08-04T01:59:43.312Z,91.95
2017-08-04T01:59:43.925Z,92.04
2017-08-04T01:59:58.045Z,91.79
2017-08-04T02:00:58.187Z,92.08
2017-08-04T02:01:58.619Z,91.61
2017-08-04T02:02:58.060Z,91.58
2017-08-04T02:03:58.094Z,91.91
2017-08-04T02:04:58.023Z,90.35
2017-08-04T02:05:58.072Z,91.29
2017-08-04T02:06:58.022Z,90.08
2017-08-04T02:07:58.046Z,91.28
2017-08-04T02:08:58.190Z,91.23
2017-08-04T02:09:58.220Z,90.97
2017-08-04T02:10:58.339Z,91.31
2017-08-04T02:11:58.366Z,91.66
2017-08-04T02:12:58.294Z,91.44
2017-08-04T02:13:58.236Z,91.51
2017-08-04T02:14:58.272Z,90.84
2017-08-04T02:15:58.304Z,90.98
2017-08-04T02:16:58.437Z,90.48
2017-08-04T02:17:58.057Z,90.74
2017-08-04T02:18:58.085Z,91.35
2017-08-04T02:19:58.101Z,91.32
2017-08-04T02:20:58.122Z,91.13
2017-08-04T02:21:58.151Z,91.63
2017-08-04T02:22:58.073Z,91.46
2017-08-04T02:23:58.257Z,91.56
2017-08-04T02:24:58.288Z,91.50
2017-08-04T02:25:58.412Z,91.65
2017-08-04T02:26:58.542Z,91.64
2017-08-04T02:27:58.277Z,91.45
2017-08-04T02:28:58.308Z,90.83
2017-08-04T02:29:58.336Z,91.50
2017-08-04T02:30:58.367Z,91.66
2017-08-04T02:31:58.089Z,91.35
2017-08-04T02:32:58.122Z,91.77
2017-08-04T02:33:58.152Z,91.39
2017-08-04T02:34:58.178Z,90.71
2017-08-04T02:35:58.126Z,91.70
2017-08-04T02:36:58.160Z,91.51
2017-08-04T02:37:58.187Z,91.27
2017-08-04T02:38:58.108Z,91.43
2017-08-04T02:39:58.335Z,91.22
2017-08-04T02:40:58.357Z,91.02
2017-08-04T02:41:58.287Z,91.15
2017-08-04T02:42:58.307Z,91.56
2017-08-04T02:43:58.440Z,91.16
2017-08-04T02:44:58.364Z,90.85
2017-08-04T02:45:58.495Z,90.45
2017-08-04T02:46:58.429Z,90.53
2017-08-04T02:47:58.351Z,90.75
2017-08-04T02:48:58.179Z,91.28
2017-08-04T02:49:58.111Z,91.40
2017-08-04T02:50:58.143Z,91.45
2017-08-04T02:51:58.172Z,90.95
2017-08-04T02:52:58.126Z,90.98
2017-08-04T02:53:58.161Z,91.10
2017-08-04T02:54:58.204Z,90.95
2017-08-04T02:55:58.146Z,91.61
2017-08-04T02:56:58.274Z,91.55
2017-08-04T02:57:58.215Z,91.63
2017-08-04T02:58:58.466Z,91.37
2017-08-04T02:59:58.394Z,91.61
2017-08-04T03:00:58.432Z,91.57
2017-08-04T03:01:58.562Z,91.64
2017-08-04T03:02:58.401Z,92.04
2017-08-04T03:03:58.426Z,91.62
2017-08-04T03:04:58.570Z,91.50
2017-08-04T03:05:58.197Z,91.88
2017-08-04T03:06:58.228Z,93.07
2017-08-04T03:07:58.258Z,91.72
2017-08-04T03:08:58.228Z,92.04
2017-08-04T03:09:58.180Z,91.76
2017-08-04T03:10:58.218Z,92.66
2017-08-04T03:11:58.274Z,92.83
2017-08-04T03:12:58.204Z,91.76
2017-08-04T03:13:58.549Z,91.68
2017-08-04T03:14:58.478Z,92.65
2017-08-04T03:15:58.627Z,91.77
2017-08-04T03:16:58.561Z,91.96
2017-08-04T03:17:58.392Z,91.84
2017-08-04T03:18:58.428Z,91.99
2017-08-04T03:19:58.454Z,91.99
2017-08-04T03:20:58.486Z,91.39
2017-08-04T03:21:58.511Z,91.50
2017-08-04T03:22:58.245Z,91.83
2017-08-04T03:23:58.274Z,90.87
2017-08-04T03:24:58.223Z,91.92
2017-08-04T03:25:58.338Z,91.75
2017-08-04T03:26:58.364Z,90.41
2017-08-04T03:27:58.307Z,91.48
2017-08-04T03:28:58.249Z,91.11
2017-08-04T03:29:58.476Z,91.34
2017-08-04T03:30:58.516Z,91.30
2017-08-04T03:31:58.555Z,91.85
2017-08-04T03:32:58.491Z,91.90
2017-08-04T03:33:58.534Z,91.90
2017-08-04T03:34:58.461Z,91.84
2017-08-04T03:35:58.591Z,92.04
2017-08-04T03:36:58.532Z,91.46
2017-08-04T03:37:58.247Z,91.82
2017-08-04T03:38:58.272Z,91.96
2017-08-04T03:39:58.319Z,92.31
2017-08-04T03:40:58.345Z,91.92
2017-08-04T03:41:58.376Z,92.93
2017-08-04T03:42:58.304Z,92.01
2017-08-04T03:43:58.324Z,92.12
2017-08-04T03:44:58.263Z,91.75
2017-08-04T03:45:58.692Z,91.94
2017-08-04T03:46:58.524Z,91.91
2017-08-04T03:49:30.379Z,92.13
2017-08-04T03:49:31.291Z,92.93
2017-08-04T03:49:58.352Z,92.41
2017-08-04T03:50:58.588Z,91.99
2017-08-04T03:51:58.519Z,92.57
2017-08-04T03:52:58.559Z,92.56
2017-08-04T03:53:58.294Z,92.51
2017-08-04T03:54:58.324Z,92.57
2017-08-04T03:55:58.366Z,92.85
2017-08-04T03:56:58.412Z,93.21
2017-08-04T03:57:58.360Z,92.99
2017-08-04T03:58:58.403Z,93.04
2017-08-04T03:59:58.376Z,92.96
2017-08-04T04:00:58.386Z,92.91
2017-08-04T04:01:58.422Z,92.54
2017-08-04T04:02:58.377Z,92.58
2017-08-04T04:03:58.734Z,92.96
2017-08-04T04:04:58.676Z,93.06
2017-08-04T04:05:58.621Z,93.33
2017-08-04T04:06:58.655Z,93.24
2017-08-04T04:07:58.589Z,93.33
2017-08-04T04:08:58.725Z,93.51
2017-08-04T04:09:58.348Z,93.71
2017-08-04T04:10:58.392Z,93.14
2017-08-04T04:11:58.418Z,93.16
2017-08-04T04:12:58.442Z,93.50
2017-08-04T04:13:58.370Z,93.07
2017-08-04T04:14:58.417Z,93.22
2017-08-04T04:15:58.468Z,93.50
2017-08-04T04:16:58.394Z,93.14
2017-08-04T04:17:58.618Z,93.06
2017-08-04T04:18:58.643Z,92.77
2017-08-04T04:19:58.665Z,93.19
2017-08-04T04:20:58.611Z,92.89
2017-08-04T04:21:58.742Z,92.72
2017-08-04T04:22:58.685Z,93.55
2017-08-04T04:23:58.619Z,93.09
2017-08-04T04:24:58.603Z,94.41
2017-08-04T04:25:58.772Z,93.41
2017-08-04T04:26:58.647Z,93.62
2017-08-04T04:27:58.411Z,94.03
2017-08-04T04:28:58.455Z,94.01
2017-08-04T04:29:58.458Z,93.84
2017-08-04T04:30:58.443Z,94.07
2017-08-04T04:31:58.429Z,94.53
2017-08-04T04:32:58.498Z,93.79
2017-08-04T04:33:58.445Z,94.20
2017-08-04T04:34:58.435Z,94.69
2017-08-04T04:35:58.661Z,94.63
2017-08-04T04:36:58.735Z,94.21
2017-08-04T04:37:58.719Z,94.48
2017-08-04T04:38:58.726Z,94.46
2017-08-04T04:39:58.689Z,94.68
2017-08-04T04:40:58.738Z,94.02
2017-08-04T04:41:58.694Z,93.10
2017-08-04T04:42:58.713Z,93.00
2017-08-04T04:43:58.757Z,93.01
2017-08-04T04:44:58.504Z,92.66
2017-08-04T04:45:58.493Z,92.79
2017-08-04T04:46:58.555Z,93.39
2017-08-04T04:47:58.470Z,93.32
2017-08-04T04:48:58.538Z,92.24
2017-08-04T04:49:58.520Z,93.40
2017-08-04T04:50:58.506Z,93.03
2017-08-04T04:51:58.745Z,92.57
2017-08-04T04:52:58.660Z,92.52
2017-08-04T04:53:58.768Z,93.34
2017-08-04T04:54:58.765Z,94.07
2017-08-04T04:55:58.766Z,93.67
2017-08-04T04:56:58.775Z,92.56
2017-08-04T04:57:58.683Z,91.76
2017-08-04T04:58:58.715Z,92.62
2017-08-04T04:59:58.509Z,92.48
2017-08-04T05:00:58.554Z,92.19
2017-08-04T05:01:58.568Z,92.48
2017-08-04T05:02:58.588Z,92.84
2017-08-04T05:03:58.538Z,92.89
2017-08-04T05:04:58.568Z,93.52
2017-08-04T05:05:58.592Z,93.38
2017-08-04T05:06:58.617Z,93.08
2017-08-04T05:07:58.595Z,93.01
2017-08-04T05:08:58.553Z,92.47
2017-08-04T05:09:58.770Z,91.73
2017-08-04T05:10:58.782Z,91.81
2017-08-04T05:11:58.916Z,91.70
2017-08-04T05:12:58.836Z,92.50
2017-08-04T05:13:58.754Z,91.97
2017-08-04T05:14:58.804Z,92.24
2017-08-04T05:15:58.572Z,92.49
2017-08-04T05:16:58.599Z,92.25
2017-08-04T05:17:58.636Z,92.36
2017-08-04T05:18:58.569Z,91.85
2017-08-04T05:19:58.619Z,92.15
2017-08-04T05:20:58.551Z,91.99
2017-08-04T05:21:58.599Z,92.01
2017-08-04T05:22:58.626Z,91.60
2017-08-04T05:23:58.655Z,89.99
2017-08-04T05:24:58.859Z,91.34
2017-08-04T05:25:58.797Z,90.52
2017-08-04T05:26:58.862Z,88.88
2017-08-04T05:27:58.854Z,88.06
2017-08-04T05:28:58.865Z,87.29
2017-08-04T05:29:58.788Z,86.12
2017-08-04T05:30:58.757Z,86.91
2017-08-04T05:31:58.821Z,86.54
2017-08-04T05:32:58.641Z,86.96
2017-08-04T05:33:58.589Z,88.26
2017-08-04T05:34:58.631Z,88.80
2017-08-04T05:35:58.609Z,87.61
2017-08-04T05:36:58.617Z,87.26
2017-08-04T05:37:58.635Z,87.70
2017-08-04T05:38:58.591Z,88.43
2017-08-04T05:39:58.641Z,88.40
2017-08-04T05:40:58.684Z,87.49
2017-08-04T05:41:58.848Z,85.82
2017-08-04T05:42:59.001Z,87.07
2017-08-04T05:43:58.874Z,85.95
2017-08-04T05:44:58.880Z,86.30
2017-08-04T05:45:58.852Z,85.84
2017-08-04T05:46:59.012Z,86.00
2017-08-04T05:47:58.865Z,85.43
2017-08-04T05:48:59.138Z,85.27
2017-08-04T05:49:58.687Z,84.13
2017-08-04T05:50:58.745Z,83.86
2017-08-04T05:51:58.696Z,83.18
2017-08-04T05:52:58.632Z,83.88
2017-08-04T05:53:58.754Z,84.40
2017-08-04T05:54:58.672Z,82.69
2017-08-04T05:55:58.672Z,83.45
2017-08-04T05:56:58.781Z,83.35
2017-08-04T05:57:58.696Z,83.45
2017-08-04T05:58:58.898Z,83.00
2017-08-04T05:59:59.066Z,83.05
2017-08-04T06:00:59.061Z,82.76
2017-08-04T06:01:59.059Z,83.59
2017-08-04T06:02:58.914Z,83.45
2017-08-04T06:03:59.052Z,82.91
2017-08-04T06:04:58.699Z,83.50
2017-08-04T06:05:58.719Z,82.77
2017-08-04T06:06:58.702Z,84.52
2017-08-04T06:07:58.720Z,83.82
2017-08-04T06:08:58.724Z,82.86
2017-08-04T06:09:58.767Z,81.90
2017-08-04T06:10:58.741Z,83.19
2017-08-04T06:11:58.726Z,83.45
2017-08-04T06:12:58.709Z,83.72
2017-08-04T06:13:59.010Z,83.76
2017-08-04T06:14:58.885Z,83.37
2017-08-04T06:15:58.980Z,84.46
2017-08-04T06:16:59.130Z,84.90
2017-08-04T06:17:58.956Z,82.98
2017-08-04T06:18:58.996Z,82.26
2017-08-04T06:19:59.005Z,82.22
2017-08-04T06:20:58.960Z,81.41
2017-08-04T06:21:58.784Z,81.68
2017-08-04T06:22:58.792Z,81.55
2017-08-04T06:23:58.826Z,81.77
2017-08-04T06:24:58.786Z,81.67
2017-08-04T06:25:58.800Z,80.85
2017-08-04T06:26:58.804Z,80.70
2017-08-04T06:27:58.718Z,80.64
2017-08-04T06:28:58.786Z,79.41
2017-08-04T06:29:59.113Z,79.70
2017-08-04T06:30:59.101Z,80.49
2017-08-04T06:31:59.091Z,79.24
2017-08-04T06:32:59.126Z,80.36
2017-08-04T06:33:58.977Z,80.53
2017-08-04T06:34:59.015Z,79.99
2017-08-04T06:35:59.057Z,79.46
2017-08-04T06:36:59.163Z,79.50
2017-08-04T06:37:59.183Z,80.33
2017-08-04T06:38:59.218Z,79.90
2017-08-04T06:39:58.761Z,78.68
2017-08-04T06:40:58.805Z,78.73
2017-08-04T06:41:58.827Z,78.03
2017-08-04T06:42:58.845Z,78.10
2017-08-04T06:43:58.872Z,78.97
2017-08-04T06:44:58.815Z,78.97
2017-08-04T06:45:58.853Z,79.11
2017-08-04T06:46:58.929Z,77.06
2017-08-04T06:47:59.042Z,77.45
2017-08-04T06:48:59.139Z,77.86
2017-08-04T06:49:59.059Z,76.57
2017-08-04T06:50:59.129Z,77.27
2017-08-04T06:51:59.197Z,77.84
2017-08-04T06:52:59.176Z,78.66
2017-08-04T06:53:59.134Z,76.84
2017-08-04T06:54:59.225Z,77.18
2017-08-04T06:55:58.885Z,76.92
2017-08-04T06:56:58.898Z,78.00
2017-08-04T06:57:58.865Z,79.10
2017-08-04T06:58:58.848Z,77.78
2017-08-04T06:59:58.843Z,78.02
2017-08-04T07:00:58.857Z,77.08
2017-08-04T07:01:58.862Z,75.34
2017-08-04T07:02:59.054Z,76.92
2017-08-04T07:03:59.174Z,75.62
2017-08-04T07:04:59.170Z,74.88
2017-08-04T07:05:59.131Z,74.55
2017-08-04T07:06:59.214Z,74.95
2017-08-04T07:07:59.188Z,74.62
2017-08-04T07:08:59.164Z,75.94
2017-08-04T07:09:59.166Z,75.99
2017-08-04T07:10:59.140Z,76.43
2017-08-04T07:11:59.322Z,75.38
2017-08-04T07:12:58.961Z,75.73
2017-08-04T07:13:58.928Z,75.17
2017-08-04T07:14:58.867Z,75.85
2017-08-04T07:15:58.917Z,76.89
2017-08-04T07:16:58.976Z,76.15
2017-08-04T07:17:58.911Z,77.10
2017-08-04T07:18:58.935Z,75.19
2017-08-04T07:19:59.240Z,76.38
2017-08-04T07:20:59.263Z,76.57
2017-08-04T07:21:39.449Z,76.57
2017-08-04T07:22:04.627Z,76.56
2017-08-04T07:22:58.937Z,75.90
2017-08-04T07:23:59.268Z,75.86
2017-08-04T07:24:59.200Z,77.13
2017-08-04T07:25:59.243Z,77.18
2017-08-04T07:26:59.256Z,75.46
2017-08-04T07:27:58.921Z,75.73
2017-08-04T07:28:59.040Z,76.62
2017-08-04T07:29:59.427Z,75.42
2017-08-04T07:30:58.968Z,75.55
2017-08-04T07:32:13.422Z,74.83
2017-08-04T07:32:59.013Z,74.69
2017-08-04T07:33:59.203Z,74.41
2017-08-04T07:34:59.195Z,75.31
2017-08-04T07:35:59.300Z,74.62
2017-08-04T07:36:59.154Z,75.06
2017-08-04T07:37:59.324Z,75.25
2017-08-04T07:38:59.222Z,73.43
2017-08-04T07:39:59.221Z,74.27
2017-08-04T07:40:59.230Z,74.40
2017-08-04T07:41:59.344Z,74.08
2017-08-04T07:42:59.345Z,73.71
2017-08-04T07:43:59.029Z,74.57
2017-08-04T07:44:59.016Z,75.72
2017-08-04T18:28:07.172Z,71.66
2017-08-04T18:28:38.161Z,70.82
2017-08-04T18:29:20.139Z,70.35
2017-08-04T18:30:11.075Z,71.02
2017-08-04T18:31:10.929Z,71.60
2017-08-04T18:32:10.867Z,72.10
2017-08-04T18:33:21.257Z,71.31
2017-08-04T18:34:11.001Z,71.63
2017-08-04T18:35:10.944Z,71.88
2017-08-04T18:36:21.053Z,70.40
2017-08-04T18:37:10.986Z,69.91
2017-08-04T18:38:10.999Z,69.65
2017-08-04T18:39:21.171Z,70.32
2017-08-04T18:40:10.913Z,71.05
2017-08-04T18:41:10.922Z,70.85
2017-08-04T18:42:10.946Z,71.03
2017-08-04T18:43:21.218Z,71.96
2017-08-04T18:44:10.981Z,71.22
2017-08-04T18:45:10.879Z,70.79
2017-08-04T18:46:10.961Z,72.27
2017-08-04T18:47:21.204Z,72.46
2017-08-04T18:48:11.026Z,71.52
2017-08-04T18:49:10.960Z,71.36
2017-08-04T18:50:10.957Z,71.98
2017-08-04T18:51:21.197Z,73.24
2017-08-04T18:52:10.939Z,71.65
2017-08-04T18:53:11.072Z,72.49
2017-08-04T18:54:10.948Z,73.11
2017-08-04T18:55:21.398Z,73.35
2017-08-04T18:56:11.085Z,72.82
2017-08-04T18:57:11.153Z,73.32
2017-08-04T18:58:21.407Z,72.72
2017-08-04T18:59:10.930Z,73.59
2017-08-04T19:00:10.985Z,73.12
2017-08-04T19:01:11.122Z,74.81
2017-08-04T19:02:21.181Z,73.45
2017-08-04T19:03:11.107Z,72.88
2017-08-04T19:04:11.521Z,73.33
2017-08-04T19:05:10.929Z,72.87
2017-08-04T19:06:21.229Z,73.75
2017-08-04T19:07:11.048Z,74.51
2017-08-04T19:08:11.062Z,74.37
2017-08-04T19:09:11.023Z,75.27
2017-08-04T19:10:21.276Z,74.69
2017-08-04T19:11:11.026Z,74.78
2017-08-04T19:12:11.043Z,74.66
2017-08-04T19:13:11.044Z,74.64
2017-08-04T19:14:21.337Z,75.49
2017-08-04T19:15:10.987Z,75.79
2017-08-04T19:16:11.111Z,76.12
2017-08-04T19:17:12.433Z,75.21
2017-08-04T19:18:21.677Z,74.78
2017-08-04T19:19:11.001Z,75.79
2017-08-04T19:20:11.134Z,75.95
2017-08-04T19:21:22.721Z,72.65
2017-08-04T19:22:10.936Z,75.13
2017-08-04T19:23:11.030Z,74.66
2017-08-04T19:24:21.433Z,75.84
2017-08-04T19:25:14.051Z,75.01
2017-08-04T19:26:11.241Z,74.68
2017-08-04T19:27:23.399Z,75.57
2017-08-04T19:28:10.991Z,76.07
2017-08-04T19:29:11.043Z,75.67
2017-08-04T19:30:21.356Z,76.02
2017-08-04T19:31:11.008Z,76.50
2017-08-04T19:32:11.265Z,76.54
2017-08-04T19:33:11.047Z,76.82
2017-08-04T19:34:21.284Z,76.48
2017-08-04T19:35:11.350Z,76.80
2017-08-04T19:36:11.132Z,76.71
2017-08-04T19:37:21.282Z,76.54
2017-08-04T19:38:11.060Z,76.64
2017-08-04T19:39:11.065Z,76.20
2017-08-04T19:40:11.465Z,76.05
2017-08-04T19:41:21.430Z,76.72
2017-08-04T19:42:11.093Z,77.49
2017-08-04T19:43:11.149Z,76.87
2017-08-04T19:44:21.406Z,76.38
2017-08-04T19:45:11.129Z,76.40
2017-08-04T19:46:11.226Z,76.73
2017-08-04T19:47:21.490Z,76.40
2017-08-04T19:48:11.139Z,76.59
2017-08-04T19:49:16.563Z,76.27
2017-08-04T19:50:11.147Z,76.66
2017-08-04T19:51:21.994Z,76.31
2017-08-04T19:52:11.247Z,77.03
2017-08-04T19:53:11.232Z,77.56
2017-08-04T19:54:11.986Z,77.41
2017-08-04T19:55:24.730Z,77.18
2017-08-04T19:56:11.394Z,77.26
2017-08-04T19:57:11.931Z,77.08
2017-08-04T19:58:24.192Z,77.38
2017-08-04T19:59:13.184Z,77.32
2017-08-04T20:00:11.635Z,77.77
2017-08-04T20:01:22.075Z,77.54
2017-08-04T20:02:12.933Z,78.16
2017-08-04T20:03:12.054Z,77.72
2017-08-04T20:04:21.411Z,77.41
2017-08-04T20:05:11.162Z,78.21
2017-08-04T20:06:11.253Z,77.79
2017-08-04T20:07:11.250Z,78.54
2017-08-04T20:08:21.630Z,78.56
2017-08-04T20:09:11.119Z,77.92
2017-08-04T20:10:11.216Z,76.93
2017-08-04T20:11:11.238Z,76.39
2017-08-04T20:12:21.506Z,76.54
2017-08-04T20:13:11.217Z,77.19
2017-08-04T20:14:11.126Z,77.85
2017-08-04T20:15:11.243Z,78.03
2017-08-04T20:16:23.546Z,77.91
2017-08-04T20:17:11.221Z,77.75
2017-08-04T20:18:11.170Z,79.16
2017-08-04T20:19:21.481Z,77.04
2017-08-04T20:20:11.330Z,77.80
2017-08-04T20:21:11.454Z,76.74
2017-08-04T20:22:13.084Z,78.16
2017-08-04T20:23:31.906Z,77.63
2017-08-04T20:24:15.322Z,77.69
2017-08-04T20:25:11.178Z,77.32
2017-08-04T20:26:21.510Z,77.87
2017-08-04T20:27:11.317Z,76.68
2017-08-04T20:28:11.274Z,78.11
2017-08-04T20:29:21.542Z,77.96
2017-08-04T20:30:11.261Z,78.80
2017-08-04T20:31:11.249Z,78.82
2017-08-04T20:32:11.236Z,78.37
2017-08-04T20:33:21.556Z,77.75
2017-08-04T20:34:11.236Z,78.51
2017-08-04T20:35:11.215Z,78.64
2017-08-04T20:36:21.753Z,78.83
2017-08-04T20:37:11.296Z,78.87
2017-08-04T20:38:11.258Z,78.97
2017-08-04T20:39:11.310Z,79.27
2017-08-04T20:40:21.472Z,79.13
2017-08-04T20:41:11.464Z,78.81
2017-08-04T20:42:11.745Z,79.42
2017-08-04T20:43:11.261Z,78.98
2017-08-04T20:44:21.694Z,78.78
2017-08-04T20:45:11.192Z,78.90
2017-08-04T20:46:11.259Z,79.07
2017-08-04T20:47:21.501Z,78.81
2017-08-04T20:48:11.208Z,78.65
2017-08-04T20:49:11.289Z,77.59
2017-08-04T20:50:11.226Z,77.21
2017-08-04T20:51:21.571Z,78.54
2017-08-04T20:52:11.409Z,78.47
2017-08-04T20:53:11.391Z,78.79
2017-08-04T20:54:11.256Z,78.77
2017-08-04T20:55:21.491Z,77.65
2017-08-04T20:56:11.272Z,78.32
2017-08-04T20:57:11.347Z,78.51
2017-08-04T20:58:11.265Z,78.71
2017-08-04T20:59:21.525Z,79.00
2017-08-04T21:00:11.412Z,78.78
2017-08-04T21:01:11.239Z,78.77
2017-08-04T21:02:11.246Z,78.50
2017-08-04T21:03:21.824Z,78.77
2017-08-04T21:04:11.270Z,78.75
2017-08-04T21:05:11.275Z,78.55
2017-08-04T21:06:21.492Z,78.47
2017-08-04T21:07:11.304Z,79.11
2017-08-04T21:08:11.431Z,78.64
2017-08-04T21:09:11.290Z,79.23
2017-08-04T21:10:21.658Z,78.89
2017-08-04T21:11:11.481Z,79.42
2017-08-04T21:12:11.374Z,79.23
2017-08-04T21:13:21.691Z,78.86
2017-08-04T21:14:11.497Z,78.04
2017-08-04T21:15:11.344Z,80.06
2017-08-04T21:16:11.288Z,79.82
2017-08-04T21:17:21.553Z,79.29
2017-08-04T21:18:11.497Z,79.88
2017-08-04T21:19:11.297Z,79.70
2017-08-04T21:20:11.345Z,80.18
2017-08-04T21:21:21.573Z,80.48
2017-08-04T21:22:11.404Z,80.67
2017-08-04T21:23:11.462Z,81.50
2017-08-04T21:24:11.328Z,81.16
2017-08-04T21:25:21.588Z,80.52
2017-08-04T21:26:11.402Z,80.08
2017-08-04T21:27:11.442Z,79.89
2017-08-04T21:28:21.896Z,79.56
2017-08-04T21:29:11.704Z,79.58
2017-08-04T21:30:11.452Z,80.12
2017-08-04T21:31:21.724Z,79.65
2017-08-04T21:32:11.334Z,79.40
2017-08-04T21:33:11.484Z,80.00
2017-08-04T21:34:11.450Z,79.84
2017-08-04T21:35:21.914Z,79.82
2017-08-04T21:36:11.443Z,80.43
2017-08-04T21:37:11.485Z,80.48
2017-08-04T21:38:11.416Z,79.91
2017-08-04T21:39:21.674Z,79.65
2017-08-04T21:40:11.487Z,80.06
2017-08-04T21:41:11.425Z,79.78
2017-08-04T21:42:11.459Z,79.67
2017-08-04T21:43:21.807Z,79.76
2017-08-04T21:44:11.527Z,80.61
2017-08-04T21:45:11.463Z,80.08
2017-08-04T21:46:21.699Z,79.72
2017-08-04T21:47:11.412Z,79.58
2017-08-04T21:48:11.464Z,79.54
2017-08-04T21:49:11.506Z,80.16
2017-08-04T21:50:21.653Z,79.56
2017-08-04T21:51:11.473Z,78.58
2017-08-04T21:52:11.413Z,79.68
2017-08-04T21:53:11.756Z,79.41
2017-08-04T21:54:21.810Z,79.68
2017-08-04T21:55:11.482Z,80.44
2017-08-04T21:56:11.426Z,80.23
2017-08-04T21:57:21.687Z,79.54
2017-08-04T21:58:11.509Z,79.73
2017-08-04T21:59:11.455Z,80.64
2017-08-04T22:00:11.501Z,81.86
2017-08-04T22:01:21.773Z,78.63
2017-08-04T22:02:11.464Z,79.56
2017-08-04T22:03:11.810Z,79.99
2017-08-04T22:04:11.441Z,79.49
2017-08-04T22:05:21.702Z,79.69
2017-08-04T22:06:11.522Z,80.01
2017-08-04T22:07:11.573Z,80.22
2017-08-04T22:08:11.530Z,80.94
2017-08-04T22:09:21.888Z,81.37
2017-08-04T22:10:11.446Z,80.60
2017-08-04T22:11:11.500Z,80.55
2017-08-04T22:12:11.579Z,78.50
2017-08-04T22:13:21.736Z,79.70
2017-08-04T22:14:11.544Z,80.39
2017-08-04T22:15:11.529Z,80.73
2017-08-04T22:16:11.510Z,80.73
2017-08-04T22:17:21.715Z,79.81
2017-08-04T22:18:11.528Z,79.13
2017-08-04T22:19:11.564Z,79.64
2017-08-04T22:20:11.512Z,77.39
2017-08-04T22:21:21.797Z,78.62
2017-08-04T22:22:11.513Z,80.13
2017-08-04T22:23:11.649Z,78.50
2017-08-04T22:24:11.492Z,80.48
2017-08-04T22:25:21.871Z,79.58
2017-08-04T22:26:11.592Z,79.59
2017-08-04T22:27:11.529Z,79.74
2017-08-04T22:28:11.663Z,80.05
2017-08-04T22:29:22.022Z,79.98
2017-08-04T22:30:11.688Z,79.26
2017-08-04T22:31:11.512Z,79.38
2017-08-04T22:32:21.861Z,80.57
2017-08-04T22:33:11.587Z,79.64
2017-08-04T22:34:11.617Z,79.50
2017-08-04T22:35:21.780Z,78.89
2017-08-04T22:36:11.605Z,79.59
2017-08-04T22:37:11.583Z,79.21
2017-08-04T22:38:11.548Z,79.86
2017-08-04T22:39:21.844Z,80.17
2017-08-04T22:40:11.527Z,79.92
2017-08-04T22:41:11.553Z,80.17
2017-08-04T22:42:11.594Z,79.20
2017-08-04T22:43:21.908Z,80.40
2017-08-04T22:44:11.812Z,79.36
2017-08-04T22:45:11.552Z,79.82
2017-08-04T22:46:11.588Z,79.65
2017-08-04T22:47:21.759Z,80.17
2017-08-04T22:48:11.591Z,79.77
2017-08-04T22:49:11.639Z,80.16
2017-08-04T22:50:11.645Z,78.82
2017-08-04T22:51:21.944Z,79.38
2017-08-04T22:52:11.558Z,79.55
2017-08-04T22:53:11.706Z,79.71
2017-08-04T22:54:11.626Z,80.76
2017-08-04T22:55:21.806Z,80.00
2017-08-04T22:56:11.618Z,80.82
2017-08-04T22:57:11.651Z,80.60
2017-08-04T22:58:11.893Z,80.79
2017-08-04T22:59:21.844Z,81.00
2017-08-04T23:00:11.679Z,79.83
2017-08-04T23:01:11.622Z,80.65
2017-08-04T23:02:11.643Z,81.40
2017-08-04T23:03:21.942Z,81.86
2017-08-04T23:04:11.660Z,81.31
2017-08-04T23:05:11.591Z,81.77
2017-08-04T23:06:11.624Z,81.92
2017-08-04T23:07:21.887Z,82.75
2017-08-04T23:08:11.701Z,82.49
2017-08-04T23:09:11.634Z,82.01
2017-08-04T23:10:11.965Z,81.71
2017-08-04T23:11:21.928Z,82.26
2017-08-04T23:12:11.724Z,81.71
2017-08-04T23:13:11.770Z,81.44
2017-08-04T23:14:11.695Z,81.71
2017-08-04T23:15:21.940Z,81.91
2017-08-04T23:16:11.755Z,81.69
2017-08-04T23:17:11.697Z,81.67
2017-08-04T23:18:11.722Z,81.63
2017-08-04T23:19:21.925Z,82.23
2017-08-04T23:20:11.631Z,82.67
2017-08-04T23:21:11.617Z,81.86
2017-08-04T23:22:21.871Z,82.15
2017-08-04T23:23:11.780Z,81.34
2017-08-04T23:24:11.716Z,82.56
2017-08-04T23:25:11.712Z,82.09
2017-08-04T23:26:21.916Z,82.71
2017-08-04T23:27:11.652Z,82.47
2017-08-04T23:28:11.787Z,82.52
2017-08-04T23:29:11.732Z,82.70
2017-08-04T23:30:22.079Z,82.03
2017-08-04T23:31:11.710Z,82.42
2017-08-04T23:32:11.732Z,82.53